Time;durP1;ratioP1;P1;durP2;ratioP2;P2;SDS_P1;SDS_P2;PMS_P1;PMS_P2;Temp;Humidity;BMP_temperature;BMP_pressure;BME280_temperature;BME280_humidity;BME280_pressure;Samples;Min_cycle;Max_cycle;Signal;HPM_P1;HPM_P2
2022/06/13 00:01:16;;;;;;;7.33;3.40;;;12.80;99.90;12.20;100385;;;;584264;244;24080;-82
2022/06/13 00:03:48;;;;;;;6.33;3.47;;;12.80;99.90;12.20;100379;;;;584432;245;24060;-83
2022/06/13 00:06:19;;;;;;;9.23;4.07;;;12.90;99.90;12.30;100385;;;;584614;244;24070;-83
2022/06/13 00:08:52;;;;;;;5.67;3.43;;;12.90;99.90;12.30;100380;;;;584459;244;24121;-82
2022/06/13 00:11:22;;;;;;;5.67;3.27;;;12.90;99.90;12.30;100382;;;;584640;244;24076;-82
2022/06/13 00:13:50;;;;;;;7.57;3.90;;;13.00;99.90;12.30;100382;;;;584174;246;24081;-81
2022/06/13 00:16:18;;;;;;;10.10;3.33;;;13.00;99.90;12.30;100383;;;;584602;244;24067;-81
2022/06/13 00:18:52;;;;;;;3.73;3.23;;;13.00;99.90;12.30;100382;;;;584262;244;24086;-82
2022/06/13 00:21:23;;;;;;;8.13;3.33;;;13.00;99.90;12.30;100377;;;;584510;245;24051;-82
2022/06/13 00:23:53;;;;;;;10.17;3.40;;;13.00;99.90;12.30;100369;;;;584063;244;24071;-81
2022/06/13 00:26:22;;;;;;;5.07;3.30;;;13.00;99.90;12.30;100368;;;;584160;244;24073;-83
2022/06/13 00:28:51;;;;;;;10.73;3.77;;;13.00;99.90;12.30;100367;;;;584453;244;24063;-80
2022/06/13 00:31:20;;;;;;;4.10;3.57;;;13.00;99.90;12.30;100363;;;;584246;245;24098;-84
2022/06/13 00:33:52;;;;;;;5.63;3.90;;;13.00;99.90;12.40;100359;;;;584040;246;24073;-82
2022/06/13 00:36:23;;;;;;;8.73;4.27;;;13.00;99.90;12.40;100353;;;;583995;245;24060;-82
2022/06/13 00:38:55;;;;;;;9.47;3.67;;;13.10;99.90;12.40;100351;;;;585000;244;24063;-82
2022/06/13 00:41:29;;;;;;;8.73;4.10;;;13.00;99.90;12.40;100347;;;;585205;244;24065;-81
2022/06/13 00:43:59;;;;;;;8.00;3.70;;;13.10;99.90;12.40;100347;;;;584178;245;24094;-83
2022/06/13 00:46:32;;;;;;;6.53;3.80;;;13.00;99.90;12.40;100347;;;;584380;245;24141;-83
2022/06/13 00:49:04;;;;;;;4.10;3.53;;;13.10;99.90;12.40;100339;;;;584567;241;24092;-83
2022/06/13 00:51:40;;;;;;;7.43;3.87;;;13.10;99.90;12.40;100340;;;;584499;245;24052;-82
2022/06/13 00:54:06;;;;;;;4.43;3.57;;;13.10;99.90;12.40;100342;;;;585575;244;24049;-81
2022/06/13 00:56:34;;;;;;;8.40;3.40;;;13.10;99.90;12.40;100339;;;;585969;244;24059;-81
2022/06/13 00:59:02;;;;;;;6.20;4.07;;;13.10;99.90;12.40;100335;;;;585397;244;24047;-80
2022/06/13 01:01:37;;;;;;;5.33;3.20;;;13.10;99.90;12.40;100333;;;;585737;244;24047;-83
2022/06/13 01:04:05;;;;;;;5.03;3.53;;;13.10;99.90;12.40;100331;;;;585456;242;24081;-83
2022/06/13 01:06:35;;;;;;;11.70;3.97;;;13.10;99.90;12.40;100332;;;;585172;245;24066;-84
2022/06/13 01:09:03;;;;;;;7.77;3.20;;;13.10;99.90;12.40;100331;;;;585126;244;24164;-84
2022/06/13 01:11:31;;;;;;;12.23;3.43;;;13.10;99.90;12.40;100330;;;;585103;245;24055;-83
2022/06/13 01:14:26;;;;;;;10.87;3.60;;;13.10;99.90;12.40;100335;;;;585146;244;24064;-83
2022/06/13 01:17:16;;;;;;;6.10;3.27;;;13.10;99.90;12.40;100340;;;;585097;244;24055;-85
2022/06/13 01:20:21;;;;;;;7.53;3.37;;;13.00;99.90;12.40;100339;;;;585070;244;24116;-83
2022/06/13 01:23:25;;;;;;;7.67;3.53;;;13.00;99.90;12.40;100335;;;;584177;245;24062;-84
2022/06/13 01:26:24;;;;;;;6.73;3.50;;;13.10;99.90;12.40;100331;;;;584526;245;24161;-82
2022/06/13 01:29:01;;;;;;;7.87;2.93;;;13.00;99.90;12.40;100340;;;;585026;244;24055;-83
2022/06/13 01:31:50;;;;;;;4.13;3.70;;;13.10;99.90;12.40;100331;;;;583958;245;24111;-82
2022/06/13 01:34:46;;;;;;;11.88;5.50;;;13.10;99.90;12.50;100339;;;;579636;244;35051;-82
2022/06/13 01:37:31;;;;;;;12.57;4.23;;;13.10;99.90;12.50;100336;;;;584736;244;24068;-84
2022/06/13 01:40:29;;;;;;;8.37;3.63;;;13.10;99.90;12.50;100336;;;;583105;246;24094;-83
2022/06/13 01:43:15;;;;;;;4.87;3.67;;;13.10;99.90;12.40;100336;;;;584479;245;24070;-83
2022/06/13 01:45:49;;;;;;;6.17;3.80;;;13.10;99.90;12.40;100333;;;;584410;246;24048;-83
2022/06/13 01:48:29;;;;;;;9.17;4.33;;;13.00;99.90;12.40;100333;;;;584204;245;24099;-84
2022/06/13 01:51:05;;;;;;;7.50;4.00;;;13.00;99.90;12.40;100316;;;;583622;242;24052;-83
2022/06/13 01:54:13;;;;;;;7.13;3.60;;;13.00;99.90;12.30;100332;;;;583335;245;24131;-81
2022/06/13 01:56:46;;;;;;;5.50;4.30;;;13.00;99.90;12.30;100335;;;;584518;245;24110;-82
2022/06/13 01:59:32;;;;;;;5.07;3.90;;;12.90;99.90;12.30;100326;;;;583736;246;24073;-82
2022/06/13 02:02:10;;;;;;;5.97;3.57;;;12.90;99.90;12.30;100320;;;;583587;245;24052;-82
2022/06/13 02:04:39;;;;;;;5.43;3.50;;;12.90;99.90;12.20;100321;;;;585201;244;24115;-82
2022/06/13 02:07:09;;;;;;;8.43;3.47;;;12.80;99.90;12.20;100330;;;;585105;245;24077;-82
2022/06/13 02:09:43;;;;;;;6.90;3.40;;;12.80;99.90;12.10;100325;;;;585096;245;24066;-82
2022/06/13 02:12:11;;;;;;;5.40;3.83;;;12.80;99.90;12.10;100319;;;;584851;245;24059;-83
2022/06/13 02:14:45;;;;;;;8.20;3.70;;;12.70;99.90;12.00;100314;;;;585252;244;24069;-82
2022/06/13 02:17:15;;;;;;;9.67;4.03;;;12.70;99.90;12.00;100317;;;;584997;245;24048;-82
2022/06/13 02:19:57;;;;;;;6.47;3.63;;;12.60;99.90;12.00;100316;;;;584776;245;24067;-81
2022/06/13 02:22:28;;;;;;;8.45;5.22;;;12.60;99.90;12.00;100309;;;;578330;245;34967;-82
2022/06/13 02:25:17;;;;;;;5.13;4.10;;;12.60;99.90;12.00;100310;;;;584356;245;24105;-83
2022/06/13 02:27:45;;;;;;;6.23;3.83;;;12.60;99.90;12.00;100304;;;;579371;246;24059;-83
2022/06/13 02:30:13;;;;;;;6.97;3.60;;;12.70;99.90;12.00;100302;;;;584433;245;24068;-82
2022/06/13 02:32:47;;;;;;;7.83;3.53;;;12.60;99.90;12.00;100305;;;;584662;245;24071;-82
2022/06/13 02:35:26;;;;;;;8.33;3.67;;;12.70;99.90;12.10;100291;;;;584461;245;24044;-83
2022/06/13 02:38:00;;;;;;;6.53;3.80;;;12.70;99.90;12.10;100291;;;;580504;246;24077;-82
2022/06/13 02:40:36;;;;;;;5.50;3.57;;;12.70;99.90;12.10;100300;;;;584588;244;24096;-82
2022/06/13 02:43:26;;;;;;;6.17;3.27;;;12.70;99.90;12.10;100285;;;;584042;246;24115;-83
2022/06/13 02:45:54;;;;;;;9.73;3.27;;;12.70;99.90;12.10;100281;;;;584063;245;24082;-84
2022/06/13 02:48:43;;;;;;;6.67;3.70;;;12.70;99.90;12.10;100271;;;;584735;244;24051;-83
2022/06/13 02:51:44;;;;;;;6.77;3.53;;;12.80;99.90;12.20;100282;;;;584890;242;24052;-83
2022/06/13 02:54:17;;;;;;;4.17;3.53;;;12.80;99.90;12.20;100280;;;;584061;245;24067;-83
2022/06/13 02:59:58;;;;;;;8.77;3.97;;;12.90;99.90;12.30;100265;;;;585104;244;25105;-83
2022/06/13 03:02:40;;;;;;;5.83;3.47;;;12.90;99.90;12.30;100259;;;;585631;244;24016;-83
2022/06/13 03:05:08;;;;;;;8.67;3.47;;;12.90;99.90;12.30;100272;;;;581961;246;24095;-83
2022/06/13 03:07:42;;;;;;;13.87;4.20;;;12.90;99.90;12.40;100276;;;;585737;245;24056;-83
2022/06/13 03:10:13;;;;;;;6.17;3.90;;;13.00;99.90;12.40;100274;;;;583763;245;24065;-83
2022/06/13 03:12:51;;;;;;;9.37;3.40;;;13.10;99.90;12.50;100280;;;;584854;245;24078;-84
2022/06/13 03:15:24;;;;;;;5.00;3.03;;;13.10;99.90;12.60;100284;;;;584767;245;24060;-84
2022/06/13 03:17:49;;;;;;;4.77;2.87;;;13.20;99.90;12.70;100285;;;;584559;244;24059;-82
2022/06/13 03:20:35;;;;;;;11.50;4.27;;;13.30;99.90;12.80;100291;;;;584009;245;24146;-84
2022/06/13 03:23:12;;;;;;;8.03;3.20;;;13.50;99.90;13.00;100283;;;;585341;245;24072;-83
2022/06/13 03:25:54;;;;;;;7.10;3.70;;;13.60;99.90;13.10;100285;;;;584159;245;24065;-84
2022/06/13 03:28:34;;;;;;;7.03;3.60;;;13.70;99.90;13.20;100276;;;;585119;245;24074;-85
2022/06/13 03:31:29;;;;;;;5.13;3.73;;;13.80;99.90;13.20;100279;;;;579723;245;24039;-84
2022/06/13 03:33:57;;;;;;;5.83;3.73;;;13.90;99.90;13.30;100265;;;;584635;245;24100;-83
2022/06/13 03:36:40;;;;;;;7.70;3.60;;;14.00;99.90;13.30;100259;;;;584257;244;24055;-82
2022/06/13 03:39:32;;;;;;;11.17;3.50;;;13.90;99.90;13.40;100257;;;;573168;246;24130;-81
2022/06/13 03:42:08;;;;;;;3.97;3.53;;;14.00;99.90;13.60;100252;;;;584469;245;24074;-82
2022/06/13 03:44:57;;;;;;;4.47;3.13;;;14.40;99.90;13.80;100242;;;;584800;245;24048;-82
2022/06/13 03:47:52;;;;;;;7.73;2.97;;;14.40;99.90;14.00;100254;;;;584416;244;24069;-81
2022/06/13 03:50:23;;;;;;;5.13;2.70;;;14.60;99.90;14.20;100252;;;;584369;242;24072;-82
2022/06/13 03:52:50;;;;;;;4.97;3.17;;;14.80;99.90;14.40;100258;;;;584287;245;24067;-81
2022/06/13 03:55:24;;;;;;;4.37;2.93;;;15.00;99.90;14.50;100260;;;;584061;245;24154;-82
2022/06/13 03:57:57;;;;;;;6.07;3.23;;;15.10;99.90;14.60;100254;;;;584551;244;24075;-82
2022/06/13 04:00:31;;;;;;;14.10;4.30;;;15.20;99.90;14.70;100254;;;;579782;246;24079;-83
2022/06/13 04:02:59;;;;;;;5.30;3.30;;;15.40;99.90;14.90;100247;;;;583975;245;24041;-82
2022/06/13 04:05:36;;;;;;;10.03;3.80;;;15.50;99.90;15.20;100244;;;;584631;244;24129;-81
2022/06/13 04:08:04;;;;;;;12.63;3.87;;;15.80;99.90;15.50;100238;;;;584583;244;24040;-81
2022/06/13 04:10:31;;;;;;;7.70;3.30;;;16.10;99.90;15.70;100232;;;;584469;245;24060;-81
2022/06/13 04:13:02;;;;;;;8.70;3.27;;;16.30;99.90;15.90;100226;;;;584025;245;24063;-81
2022/06/13 04:15:41;;;;;;;5.13;3.00;;;16.50;99.90;16.10;100215;;;;583160;245;24084;-82
2022/06/13 04:18:30;;;;;;;10.37;3.00;;;16.70;99.90;16.40;100219;;;;584176;245;24071;-81
2022/06/13 04:21:01;;;;;;;4.10;2.80;;;17.50;99.90;16.90;100218;;;;584289;245;24052;-81
2022/06/13 04:23:35;;;;;;;8.27;3.20;;;17.40;99.90;17.40;100225;;;;584345;245;24081;-80
2022/06/13 04:26:12;;;;;;;5.53;3.17;;;18.00;99.90;18.10;100237;;;;582428;246;24075;-81
2022/06/13 04:29:01;;;;;;;5.50;2.80;;;18.60;99.90;18.90;100248;;;;585972;243;24051;-79
2022/06/13 04:31:32;;;;;;;7.57;2.80;;;19.40;99.90;19.80;100240;;;;585779;245;24082;-81
2022/06/13 04:34:11;;;;;;;5.30;2.73;;;20.40;99.90;20.40;100241;;;;585236;244;24074;-81
2022/06/13 04:36:42;;;;;;;6.63;3.00;;;21.10;99.90;20.90;100238;;;;585384;245;24065;-82
2022/06/13 04:39:07;;;;;;;8.43;4.30;;;21.60;99.90;21.00;100254;;;;584845;245;24043;-81
2022/06/13 04:41:35;;;;;;;5.30;2.80;;;21.80;99.90;21.10;100249;;;;585529;244;24023;-80
2022/06/13 04:44:03;;;;;;;7.97;3.37;;;21.90;99.90;21.10;100241;;;;586184;245;23084;-78
2022/06/13 04:46:34;;;;;;;4.50;2.60;;;21.80;99.90;21.00;100227;;;;585331;244;24048;-80
2022/06/13 04:48:59;;;;;;;6.73;3.40;;;21.80;99.90;20.70;100228;;;;576609;241;23108;-82
2022/06/13 04:51:27;;;;;;;6.90;3.30;;;21.60;99.90;20.50;100225;;;;576732;246;23063;-82
2022/06/13 04:54:23;;;;;;;2.97;2.40;;;21.30;99.90;20.30;100224;;;;570973;246;23091;-81
2022/06/13 04:56:53;;;;;;;4.47;2.67;;;20.80;99.90;20.00;100236;;;;576307;246;24048;-82
2022/06/13 04:59:20;;;;;;;4.03;2.73;;;20.50;99.90;19.90;100231;;;;576706;246;24145;-83
2022/06/13 05:01:48;;;;;;;7.33;3.20;;;20.50;99.90;19.70;100231;;;;576907;246;23092;-83
2022/06/13 05:04:16;;;;;;;3.93;2.07;;;20.30;99.90;19.50;100230;;;;584438;244;24048;-83
2022/06/13 05:06:46;;;;;;;5.63;2.57;;;20.10;99.90;19.40;100237;;;;575973;246;24050;-81
2022/06/13 05:09:17;;;;;;;3.53;1.80;;;19.90;99.90;19.20;100232;;;;565676;242;24102;-76
2022/06/13 05:11:51;;;;;;;6.97;2.10;;;19.70;99.90;19.10;100236;;;;585779;245;24062;-73
2022/06/13 05:14:22;;;;;;;5.13;2.07;;;19.70;99.90;19.10;100235;;;;576521;245;24036;-74
2022/06/13 05:17:08;;;;;;;3.00;2.10;;;19.60;99.90;19.00;100236;;;;576335;245;24076;-74
2022/06/13 05:19:42;;;;;;;8.23;2.23;;;19.50;99.90;18.90;100240;;;;576278;245;24091;-74
2022/06/13 05:22:35;;;;;;;4.80;2.23;;;19.40;99.90;18.90;100233;;;;576278;245;24078;-75
2022/06/13 05:25:37;;;;;;;8.60;2.20;;;19.40;99.90;18.80;100229;;;;576791;245;24094;-75
2022/06/13 05:28:05;;;;;;;7.73;2.20;;;19.30;99.90;18.70;100230;;;;576778;245;24051;-74
2022/06/13 05:30:33;;;;;;;12.60;2.37;;;19.20;99.90;18.60;100234;;;;576638;245;24031;-75
2022/06/13 05:33:01;;;;;;;7.47;2.80;;;19.10;99.90;18.50;100238;;;;576578;245;24026;-77
2022/06/13 05:35:32;;;;;;;3.57;2.40;;;19.00;99.90;18.40;100244;;;;576654;245;24027;-75
2022/06/13 05:38:00;;;;;;;5.60;2.80;;;19.00;99.90;18.40;100246;;;;576526;245;24050;-75
2022/06/13 05:40:29;;;;;;;6.47;2.87;;;18.80;99.90;18.30;100241;;;;577910;244;24062;-78
2022/06/13 05:42:56;;;;;;;3.93;1.93;;;18.80;99.90;18.20;100247;;;;586627;243;24043;-74
2022/06/13 05:45:24;;;;;;;5.27;2.90;;;18.70;99.90;18.10;100244;;;;577828;244;24026;-75
2022/06/13 05:47:57;;;;;;;7.20;2.63;;;18.60;99.90;18.00;100235;;;;575023;244;24044;-74
2022/06/13 05:50:24;;;;;;;3.23;2.17;;;18.60;99.90;18.00;100242;;;;571129;246;24063;-75
2022/06/13 05:52:56;;;;;;;7.47;2.30;;;18.50;99.90;17.90;100256;;;;581524;245;24141;-74
2022/06/13 05:55:20;;;;;;;6.63;2.30;;;18.50;99.90;17.90;100261;;;;572782;245;24075;-75
2022/06/13 05:57:48;;;;;;;6.97;2.50;;;18.40;99.90;17.80;100262;;;;572753;247;24089;-79
2022/06/13 06:00:18;;;;;;;5.20;1.77;;;18.40;99.90;17.80;100264;;;;581383;246;24067;-79
2022/06/13 06:02:46;;;;;;;5.87;2.30;;;18.30;99.90;17.80;100278;;;;572495;247;24129;-78
2022/06/13 06:05:14;;;;;;;5.43;2.20;;;18.30;99.90;17.70;100273;;;;581003;246;24069;-76
2022/06/13 06:07:43;;;;;;;4.93;2.43;;;18.30;99.90;17.70;100282;;;;572252;247;24107;-77
2022/06/13 06:10:14;;;;;;;4.03;2.27;;;18.20;99.90;17.70;100281;;;;581069;246;24056;-77
2022/06/13 06:12:43;;;;;;;3.20;2.10;;;18.20;99.90;17.70;100279;;;;571994;247;24137;-78
2022/06/13 06:15:14;;;;;;;9.83;3.10;;;18.20;99.90;17.70;100278;;;;580946;246;24092;-80
2022/06/13 06:17:39;;;;;;;7.63;3.00;;;18.20;99.90;17.70;100272;;;;571651;247;24089;-76
2022/06/13 06:20:07;;;;;;;8.33;3.00;;;18.20;99.90;17.70;100271;;;;581023;246;24105;-78
2022/06/13 06:22:35;;;;;;;7.20;3.63;;;18.20;99.90;17.70;100271;;;;567718;247;24079;-75
2022/06/13 06:25:03;;;;;;;9.07;3.70;;;18.20;99.90;17.70;100283;;;;580610;246;24063;-75
2022/06/13 06:27:30;;;;;;;10.65;4.50;;;18.20;99.90;17.90;100282;;;;575731;246;35121;-76
2022/06/13 06:29:58;;;;;;;11.07;3.83;;;18.30;99.90;18.00;100282;;;;567530;247;24053;-77
2022/06/13 06:32:26;;;;;;;10.07;3.73;;;18.50;99.90;18.20;100278;;;;580792;246;24052;-80
2022/06/13 06:34:54;;;;;;;11.77;3.70;;;18.70;99.90;18.30;100283;;;;580700;246;24053;-80
2022/06/13 06:37:22;;;;;;;5.53;3.63;;;18.80;99.90;18.30;100274;;;;580583;246;24076;-80
2022/06/13 06:39:50;;;;;;;11.93;4.10;;;18.80;99.90;18.30;100273;;;;580765;240;24064;-81
2022/06/13 06:42:18;;;;;;;8.70;3.13;;;18.80;99.90;18.30;100278;;;;580649;246;24080;-77
2022/06/13 06:44:46;;;;;;;5.43;3.33;;;18.80;99.90;18.20;100277;;;;572017;247;24075;-81
2022/06/13 06:47:15;;;;;;;7.10;3.47;;;18.60;99.90;18.10;100276;;;;580643;246;24056;-77
2022/06/13 06:49:43;;;;;;;8.13;3.60;;;18.50;99.90;17.90;100272;;;;581050;240;24057;-77
2022/06/13 06:52:11;;;;;;;5.43;2.63;;;18.50;99.90;17.80;100270;;;;582042;245;24060;-74
2022/06/13 07:00:11;;;;;;;5.93;3.83;;;18.10;99.90;17.50;100272;;;;568719;246;24110;-74
2022/06/13 07:02:39;;;;;;;12.33;3.97;;;18.00;99.90;17.50;100269;;;;568157;246;24067;-74
2022/06/13 07:05:07;;;;;;;8.97;3.47;;;18.00;99.90;17.50;100272;;;;581362;245;24061;-75
2022/06/13 07:07:35;;;;;;;8.37;3.67;;;18.00;99.90;17.50;100273;;;;568642;246;24063;-77
2022/06/13 07:10:03;;;;;;;8.80;3.83;;;18.00;99.90;17.50;100268;;;;581379;246;24053;-73
2022/06/13 07:12:31;;;;;;;6.47;3.20;;;18.00;99.90;17.40;100267;;;;572546;247;24060;-75
2022/06/13 07:14:59;;;;;;;3.27;2.93;;;17.90;99.90;17.40;100264;;;;581329;246;24090;-75
2022/06/13 07:17:27;;;;;;;7.37;3.10;;;17.90;99.90;17.30;100260;;;;572240;247;24056;-73
2022/06/13 07:19:55;;;;;;;6.70;3.47;;;17.90;99.90;17.30;100255;;;;580945;246;24055;-77
2022/06/13 07:22:26;;;;;;;6.20;3.37;;;17.80;99.90;17.30;100257;;;;581363;246;24068;-75
2022/06/13 07:24:51;;;;;;;5.93;3.60;;;17.90;99.90;17.40;100256;;;;567250;245;24068;-76
2022/06/13 07:27:19;;;;;;;7.33;3.30;;;17.90;99.90;17.70;100262;;;;567996;247;24066;-77
2022/06/13 07:29:47;;;;;;;8.77;3.80;;;18.10;99.90;18.90;100256;;;;572025;244;24072;-76
2022/06/13 07:32:18;;;;;;;6.20;3.40;;;19.10;99.90;22.80;100258;;;;567554;247;24061;-74
2022/06/13 07:34:46;;;;;;;5.23;2.53;;;22.30;99.90;25.80;100268;;;;580739;247;24053;-79
2022/06/13 07:37:14;;;;;;;12.17;3.43;;;25.80;99.90;26.40;100254;;;;571920;246;24080;-75
2022/06/13 07:39:42;;;;;;;5.30;2.63;;;27.00;99.90;26.20;100259;;;;571835;245;24058;-74
2022/06/13 07:42:11;;;;;;;5.47;2.70;;;26.80;99.90;25.80;100256;;;;580782;246;23090;-76
2022/06/13 07:44:39;;;;;;;6.33;3.20;;;26.80;99.90;25.40;100257;;;;571921;247;24168;-75
2022/06/13 07:47:07;;;;;;;4.20;2.60;;;26.40;99.10;25.10;100245;;;;572403;247;23089;-78
2022/06/13 07:49:35;;;;;;;7.93;3.33;;;26.10;99.40;25.10;100253;;;;572131;247;23085;-80
2022/06/13 07:52:04;;;;;;;6.83;3.27;;;25.60;98.80;24.80;100232;;;;580932;246;23076;-79
2022/06/13 07:54:31;;;;;;;6.07;2.67;;;25.50;98.70;24.60;100226;;;;567643;247;23066;-78
2022/06/13 07:56:59;;;;;;;5.83;3.17;;;25.20;99.00;25.10;100219;;;;571839;247;24128;-81
2022/06/13 07:59:27;;;;;;;5.13;3.47;;;25.60;99.10;25.30;100219;;;;580741;246;24072;-75
2022/06/13 08:01:55;;;;;;;5.40;3.37;;;25.80;96.90;25.00;100219;;;;567329;245;23073;-77
2022/06/13 08:04:23;;;;;;;4.90;3.50;;;25.70;95.90;24.90;100221;;;;570570;246;23074;-76
2022/06/13 08:06:51;;;;;;;5.67;3.50;;;25.50;96.60;25.40;100225;;;;582155;240;24051;-78
2022/06/13 08:09:19;;;;;;;5.07;2.20;;;25.80;97.20;27.80;100236;;;;582016;246;24060;-76
2022/06/13 08:11:47;;;;;;;3.60;2.03;;;27.70;95.00;29.00;100243;;;;581921;246;23067;-76
2022/06/13 08:14:15;;;;;;;3.53;2.20;;;29.30;88.00;29.20;100238;;;;570140;245;23066;-77
2022/06/13 08:16:43;;;;;;;2.70;1.87;;;29.70;79.80;29.10;100235;;;;572907;246;23058;-75
2022/06/13 08:19:11;;;;;;;3.83;1.30;;;29.60;74.10;28.90;100219;;;;572821;246;24081;-77
2022/06/13 08:21:42;;;;;;;1.45;1.00;;;29.60;74.10;30.80;100204;;;;581380;245;24080;-77
2022/06/13 08:24:07;;;;;;;2.12;1.35;;;30.90;71.40;33.50;100208;;;;572329;245;23180;-80
2022/06/13 08:26:35;;;;;;;1.50;1.10;;;33.40;63.30;35.80;100214;;;;581327;241;23088;-76
2022/06/13 08:29:04;;;;;;;2.65;1.15;;;35.80;56.90;37.70;100218;;;;572656;245;23066;-79
2022/06/13 08:31:31;;;;;;;2.62;1.23;;;37.80;52.50;38.60;100221;;;;572421;247;23098;-81
2022/06/13 08:33:59;;;;;;;2.45;1.00;;;39.10;48.10;38.50;100230;;;;580905;247;23073;-78
2022/06/13 08:36:28;;;;;;;2.83;2.15;;;40.00;43.90;39.60;100225;;;;580974;246;24096;-77
2022/06/13 08:38:55;;;;;;;4.35;1.30;;;40.00;43.80;40.60;100222;;;;581157;246;23073;-78
2022/06/13 08:41:44;;;;;;;1.80;1.40;;;41.10;43.10;41.90;100233;;;;580763;246;23119;-80
2022/06/13 08:44:42;;;;;;;2.10;1.58;;;42.20;42.90;42.10;100240;;;;568167;247;23069;-78
2022/06/13 08:47:24;;;;;;;2.10;1.48;;;42.80;40.70;40.40;100238;;;;546065;258;23153;-83
2022/06/13 08:50:13;;;;;;;3.90;1.42;;;41.80;40.60;38.90;100241;;;;572011;247;23071;-84
2022/06/13 08:52:48;;;;;;;2.47;1.37;;;40.30;41.50;37.80;100242;;;;574840;246;24108;-82
2022/06/13 08:55:33;;;;;;;2.25;1.27;;;39.00;42.50;37.30;100232;;;;559006;253;23112;-81
2022/06/13 08:58:20;;;;;;;3.15;1.62;;;37.90;43.90;37.20;100232;;;;571823;246;23105;-84
2022/06/13 09:00:51;;;;;;;3.45;1.45;;;37.80;43.90;37.60;100230;;;;573012;246;23092;-78
2022/06/13 09:03:28;;;;;;;1.98;1.35;;;38.00;44.50;38.00;100232;;;;573035;246;23132;-76
2022/06/13 09:05:56;;;;;;;1.83;1.30;;;38.40;43.90;38.40;100229;;;;573293;246;23160;-77
2022/06/13 09:08:42;;;;;;;2.92;1.52;;;38.90;42.70;38.40;100217;;;;572499;246;23148;-76
2022/06/13 09:11:19;;;;;;;4.50;2.05;;;38.90;42.70;38.90;100238;;;;576144;244;35064;-76
2022/06/13 09:13:47;;;;;;;1.83;1.35;;;39.40;42.60;39.40;100240;;;;569869;245;23081;-78
2022/06/13 09:16:29;;;;;;;2.05;1.37;;;39.80;41.30;39.50;100238;;;;573658;244;23092;-75
2022/06/13 09:19:22;;;;;;;2.75;1.60;;;40.00;41.20;39.30;100245;;;;570758;246;23073;-77
2022/06/13 09:21:56;;;;;;;2.55;1.60;;;39.90;42.90;39.20;100247;;;;571313;246;23053;-80
2022/06/13 09:24:42;;;;;;;3.12;1.85;;;39.80;42.10;38.90;100250;;;;581980;246;23174;-76
2022/06/13 09:27:10;;;;;;;3.37;1.80;;;39.70;42.00;37.80;100243;;;;572273;250;23089;-77
2022/06/13 09:30:02;;;;;;;6.75;1.95;;;38.80;42.70;36.50;100236;;;;572017;246;23067;-77
2022/06/13 09:32:33;;;;;;;3.15;1.83;;;37.80;43.80;35.40;100233;;;;563479;250;23204;-79
2022/06/13 09:35:04;;;;;;;2.58;2.03;;;36.50;45.10;34.90;100227;;;;572946;250;23160;-75
2022/06/13 09:37:34;;;;;;;4.97;1.77;;;35.70;45.90;34.10;100221;;;;567924;246;23124;-75
2022/06/13 09:40:02;;;;;;;4.53;2.15;;;34.90;47.20;33.20;100218;;;;572965;245;24132;-74
2022/06/13 09:42:52;;;;;;;2.65;1.60;;;33.00;50.00;32.10;100210;;;;573263;246;23160;-74
2022/06/13 09:45:28;;;;;;;2.95;1.62;;;32.80;49.40;30.80;100207;;;;573595;246;23097;-74
2022/06/13 09:48:14;;;;;;;5.05;1.98;;;31.60;51.30;29.90;100216;;;;572837;246;24071;-74
2022/06/13 09:51:01;;;;;;;6.95;1.92;;;29.60;53.70;28.90;100211;;;;572477;246;23227;-76
2022/06/13 09:53:37;;;;;;;4.50;1.60;;;29.50;53.60;28.30;100200;;;;573167;246;23076;-75
2022/06/13 09:56:36;;;;;;;2.90;1.97;;;28.70;55.00;27.80;100201;;;;572801;245;23079;-75
2022/06/13 09:59:43;;;;;;;3.93;2.33;;;28.10;56.60;27.20;100195;;;;568484;246;23071;-75
2022/06/13 10:02:23;;;;;;;3.93;1.67;;;27.60;57.40;26.70;100184;;;;557270;253;23146;-75
2022/06/13 10:04:54;;;;;;;3.03;2.30;;;27.10;58.20;26.40;100185;;;;567682;246;23111;-76
2022/06/13 10:07:24;;;;;;;2.83;1.70;;;26.80;59.30;26.40;100186;;;;572651;246;24100;-74
2022/06/13 10:09:57;;;;;;;3.43;1.80;;;26.70;59.90;27.40;100187;;;;573107;246;23122;-75
2022/06/13 10:12:54;;;;;;;2.67;1.70;;;27.40;60.90;29.90;100186;;;;581573;246;23066;-73
2022/06/13 10:16:00;;;;;;;3.25;2.00;;;29.80;58.10;32.30;100181;;;;568149;245;35156;-74
2022/06/13 10:18:49;;;;;;;3.75;2.25;;;32.60;51.90;32.40;100185;;;;573216;246;23134;-75
2022/06/13 10:21:26;;;;;;;6.00;2.25;;;33.10;51.10;32.00;100187;;;;572887;246;23091;-75
2022/06/13 10:24:33;;;;;;;5.05;1.90;;;32.70;51.40;31.40;100184;;;;579821;246;23065;-79
2022/06/13 10:27:12;;;;;;;3.78;2.05;;;32.20;51.20;30.70;100181;;;;574565;246;23083;-77
2022/06/13 10:29:59;;;;;;;3.45;1.83;;;31.50;52.00;29.70;100179;;;;573893;246;23085;-82
2022/06/13 10:33:04;;;;;;;2.65;1.62;;;30.60;52.90;29.20;100175;;;;573900;246;23085;-81
2022/06/13 10:35:43;;;;;;;4.43;2.03;;;29.80;54.10;29.40;100170;;;;568944;246;35120;-74
2022/06/13 10:38:51;;;;;;;5.10;1.98;;;29.80;57.10;30.40;100175;;;;573211;246;23083;-76
2022/06/13 10:41:22;;;;;;;6.40;2.17;;;30.60;56.30;31.10;100177;;;;573102;246;23099;-78
2022/06/13 10:43:47;;;;;;;4.12;1.92;;;31.40;54.20;31.20;100173;;;;570372;246;23127;-75
2022/06/13 10:46:15;;;;;;;2.15;1.67;;;31.60;52.70;31.10;100173;;;;581876;246;24060;-76
2022/06/13 10:48:55;;;;;;;3.87;1.73;;;31.60;51.60;30.70;100171;;;;582032;246;23121;-76
2022/06/13 10:51:23;;;;;;;2.75;2.05;;;31.30;52.10;30.30;100178;;;;573415;246;23097;-75
2022/06/13 10:54:08;;;;;;;5.62;2.15;;;30.90;52.70;29.60;100185;;;;577191;246;35138;-78
2022/06/13 10:56:46;;;;;;;4.18;1.37;;;29.40;54.00;28.50;100171;;;;569350;246;24183;-77
2022/06/13 10:59:29;;;;;;;6.90;1.53;;;29.30;54.00;26.90;100219;;;;573343;246;23074;-81
2022/06/13 11:02:00;;;;;;;1.83;0.90;;;28.00;53.20;24.90;100211;;;;581996;246;23117;-81
2022/06/13 11:04:25;;;;;;;2.13;1.43;;;26.20;54.60;23.30;100209;;;;572650;246;24147;-79
2022/06/13 11:06:53;;;;;;;0.97;0.80;;;24.60;57.20;22.10;100217;;;;581932;246;24100;-77
2022/06/13 11:09:44;;;;;;;2.20;0.80;;;23.20;59.60;20.90;100211;;;;572957;246;24062;-76
2022/06/13 11:12:24;;;;;;;3.83;1.27;;;22.00;63.70;19.90;100212;;;;573130;246;24087;-82
2022/06/13 11:23:20;;;;;;;3.60;1.83;;;18.10;94.00;17.70;100223;;;;568778;246;24061;-81
2022/06/13 11:25:48;;;;;;;2.23;1.40;;;18.10;93.70;17.30;100217;;;;572749;246;24076;-83
2022/06/13 11:28:18;;;;;;;1.50;1.40;;;17.70;99.90;16.90;100220;;;;568047;246;24075;-81
2022/06/13 11:30:49;;;;;;;2.93;1.67;;;17.30;99.90;16.50;100221;;;;570078;246;24090;-75
2022/06/13 11:33:34;;;;;;;4.37;2.00;;;16.60;99.90;16.20;100220;;;;581775;246;24106;-73
2022/06/13 11:36:01;;;;;;;1.77;1.57;;;16.30;99.90;16.00;100213;;;;573032;246;24191;-75
2022/06/13 11:38:35;;;;;;;3.60;1.47;;;16.30;99.90;15.80;100216;;;;572967;246;24071;-74
2022/06/13 11:41:24;;;;;;;1.83;1.50;;;16.20;99.90;15.70;100208;;;;573351;246;24126;-73
2022/06/13 11:44:01;;;;;;;1.97;1.83;;;16.10;99.90;15.70;100215;;;;574797;246;24039;-73
2022/06/13 11:46:30;;;;;;;6.50;2.30;;;16.10;99.90;15.70;100213;;;;574135;246;24175;-76
2022/06/13 11:48:57;;;;;;;3.80;1.83;;;16.10;99.90;15.70;100210;;;;570217;246;24189;-74
2022/06/13 11:51:40;;;;;;;3.60;2.40;;;16.10;99.90;15.70;100214;;;;574060;246;24117;-78
2022/06/13 11:54:08;;;;;;;3.80;1.80;;;16.20;99.90;15.70;100208;;;;563389;246;24049;-74
2022/06/13 11:56:36;;;;;;;4.27;2.20;;;16.10;99.90;15.60;100216;;;;572907;246;24064;-79
2022/06/13 11:59:04;;;;;;;4.57;2.27;;;16.10;99.90;15.50;100200;;;;582655;246;24072;-81
2022/06/13 12:01:35;;;;;;;6.57;2.37;;;16.10;99.90;15.50;100198;;;;573804;246;24125;-81